Time;durP1;ratioP1;P1;durP2;ratioP2;P2;SDS_P1;SDS_P2;PMS_P1;PMS_P2;Temp;Humidity;BMP_temperature;BMP_pressure;BME280_temperature;BME280_humidity;BME280_pressure;Samples;Min_cycle;Max_cycle;Signal;HPM_P1;HPM_P2
2022/08/10 00:01:14;;;;;;;4.75;1.90;;;;;;;18.85;78.69;102639.09;5035565;28;20033;-48
2022/08/10 00:03:40;;;;;;;2.60;2.00;;;;;;;18.83;78.32;102637.38;5043051;28;20071;-49
2022/08/10 00:06:05;;;;;;;2.47;2.00;;;;;;;18.79;78.56;102629.75;5054666;28;20515;-49
2022/08/10 00:08:30;;;;;;;4.90;1.92;;;;;;;18.74;78.80;102629.44;5057169;28;20024;-48
2022/08/10 00:10:56;;;;;;;3.20;1.85;;;;;;;18.69;78.66;102623.69;5037427;28;20017;-50
2022/08/10 00:13:24;;;;;;;6.68;2.25;;;;;;;18.73;78.87;102630.44;5034432;28;20508;-50
2022/08/10 00:15:51;;;;;;;6.10;2.08;;;;;;;18.74;79.74;102627.56;5034804;28;20040;-48
2022/08/10 00:18:16;;;;;;;5.28;2.10;;;;;;;18.69;79.79;102623.69;5036246;28;20420;-50
2022/08/10 00:20:41;;;;;;;5.75;2.38;;;;;;;18.62;79.93;102620.81;5034082;28;20222;-46
2022/08/10 00:23:07;;;;;;;4.28;2.50;;;;;;;18.58;79.70;102624.88;5043107;28;20016;-51
2022/08/10 00:25:32;;;;;;;3.55;2.50;;;;;;;18.56;79.98;102619.63;5055880;28;20024;-49
2022/08/10 00:27:57;;;;;;;4.03;2.22;;;;;;;18.52;79.96;102615.59;5051793;28;20016;-49
2022/08/10 00:30:23;;;;;;;6.47;2.30;;;;;;;18.53;79.81;102613.72;5050147;28;20503;-49
2022/08/10 00:32:48;;;;;;;4.75;2.10;;;;;;;18.50;80.14;102624.88;5040975;28;20467;-47
2022/08/10 00:35:13;;;;;;;2.33;2.13;;;;;;;18.45;80.38;102617.28;5042382;28;20210;-50
2022/08/10 00:37:39;;;;;;;4.78;2.40;;;;;;;18.41;80.23;102618.63;5043062;28;20293;-50
2022/08/10 00:40:05;;;;;;;4.60;2.50;;;;;;;18.41;81.57;102610.50;5035003;28;20082;-49
2022/08/10 00:42:30;;;;;;;5.28;2.38;;;;;;;18.33;81.09;102615.91;5054281;28;20243;-48
2022/08/10 00:44:55;;;;;;;5.32;2.72;;;;;;;18.32;80.82;102611.53;5049694;28;20021;-48
2022/08/10 00:47:21;;;;;;;8.13;3.08;;;;;;;18.30;80.89;102610.88;5034673;28;20024;-48
2022/08/10 00:49:47;;;;;;;5.03;3.47;;;;;;;18.24;81.65;102612.38;5035519;28;20025;-48
2022/08/10 00:52:14;;;;;;;7.90;3.38;;;;;;;18.21;81.92;102608.16;5035216;28;20064;-46
2022/08/10 00:54:41;;;;;;;3.33;3.03;;;;;;;18.13;82.46;102607.31;5046471;28;20514;-46
2022/08/10 00:57:07;;;;;;;8.88;3.17;;;;;;;18.03;82.53;102605.59;5054084;28;20082;-45
2022/08/10 00:59:33;;;;;;;10.23;2.95;;;;;;;17.99;83.02;102612.38;5035655;28;20032;-48
2022/08/10 01:01:59;;;;;;;6.75;3.28;;;;;;;17.96;83.20;102601.88;5035110;28;20032;-45
2022/08/10 01:04:24;;;;;;;6.68;3.30;;;;;;;17.96;83.45;102607.28;5040801;28;20319;-50
2022/08/10 01:06:58;;;;;;;3.78;3.20;;;;;;;17.97;83.08;102608.13;5046949;28;20073;-48
2022/08/10 01:09:48;;;;;;;5.00;2.90;;;;;;;17.89;83.42;102612.50;5053998;28;20031;-48
2022/08/10 01:12:22;;;;;;;5.22;3.00;;;;;;;17.84;84.28;102612.13;5055488;28;20039;-47
2022/08/10 01:14:54;;;;;;;4.43;3.00;;;;;;;17.78;84.28;102610.09;5055459;28;20024;-48
2022/08/10 01:17:47;;;;;;;6.25;2.90;;;;;;;17.73;83.47;102606.19;5053391;28;20056;-49
2022/08/10 01:21:03;;;;;;;5.50;2.80;;;;;;;17.69;83.26;102611.09;5053701;28;20036;-47
2022/08/10 01:23:49;;;;;;;3.92;2.67;;;;;;;17.59;85.80;102605.00;5028736;28;20043;-47
2022/08/10 01:26:40;;;;;;;3.15;2.45;;;;;;;17.57;84.47;102604.31;5039432;28;20025;-49
2022/08/10 01:29:38;;;;;;;6.45;3.10;;;;;;;17.48;85.70;102593.47;5042698;28;20036;-51
2022/08/10 01:32:05;;;;;;;7.38;3.40;;;;;;;17.49;86.71;102597.84;5034836;28;20043;-49
2022/08/10 01:34:48;;;;;;;5.88;3.28;;;;;;;17.52;86.16;102597.53;5053179;28;20036;-47
2022/08/10 01:37:18;;;;;;;6.38;3.40;;;;;;;17.53;86.33;102593.81;5038585;28;20029;-49
2022/08/10 01:39:50;;;;;;;9.63;3.45;;;;;;;17.47;86.83;102597.19;5044050;28;20514;-50
2022/08/10 01:42:18;;;;;;;5.78;3.38;;;;;;;17.42;86.56;102594.13;5052944;28;20020;-47
2022/08/10 01:44:52;;;;;;;6.75;3.60;;;;;;;17.43;87.09;102597.66;5035328;28;20436;-49
2022/08/10 01:50:34;;;;;;;5.85;3.95;;;;;;;17.40;85.83;102601.56;5033718;28;20427;-50
2022/08/10 01:53:05;;;;;;;7.93;3.75;;;;;;;17.32;87.88;102594.25;5044713;28;20273;-49
2022/08/10 01:55:32;;;;;;;6.30;3.67;;;;;;;17.34;87.59;102597.66;5055166;28;20032;-51
2022/08/10 01:58:02;;;;;;;6.03;3.80;;;;;;;17.24;89.54;102596.06;5054704;28;20021;-52
2022/08/10 02:00:29;;;;;;;8.40;4.13;;;;;;;17.21;88.88;102593.69;5052398;28;20491;-49
2022/08/10 02:02:59;;;;;;;7.28;4.20;;;;;;;17.21;89.33;102591.00;5041907;28;20791;-49
2022/08/10 02:05:28;;;;;;;8.43;4.50;;;;;;;17.22;88.99;102590.84;5036698;28;20093;-49
2022/08/10 02:07:56;;;;;;;11.25;4.70;;;;;;;17.20;89.89;102589.31;5036329;28;20322;-49
2022/08/10 02:10:23;;;;;;;6.43;4.35;;;;;;;17.23;90.36;102589.00;5038077;28;20081;-48
2022/08/10 02:12:55;;;;;;;8.27;4.90;;;;;;;17.23;90.34;102594.41;5043532;28;20155;-50
2022/08/10 02:15:23;;;;;;;7.90;4.30;;;;;;;17.23;89.40;102591.69;5037421;28;20064;-47
2022/08/10 02:17:53;;;;;;;8.65;3.97;;;;;;;17.21;89.06;102589.16;5057025;28;20090;-46
2022/08/10 02:20:22;;;;;;;7.00;4.40;;;;;;;17.19;89.18;102591.16;5043005;28;20552;-50
2022/08/10 02:22:51;;;;;;;6.40;4.13;;;;;;;17.10;89.56;102597.53;5037352;28;20067;-50
2022/08/10 02:25:19;;;;;;;6.78;4.28;;;;;;;17.06;90.24;102594.31;5037683;28;20032;-47
2022/08/10 02:27:47;;;;;;;7.53;4.57;;;;;;;16.99;90.26;102590.56;5038600;28;20031;-47
2022/08/10 02:30:13;;;;;;;7.00;4.75;;;;;;;16.96;91.24;102590.88;5037387;28;20029;-49
2022/08/10 02:32:40;;;;;;;8.25;5.63;;;;;;;16.93;91.78;102589.34;5037946;28;20031;-47
2022/08/10 02:35:10;;;;;;;7.05;5.20;;;;;;;16.90;91.27;102589.66;5038249;28;20405;-50
2022/08/10 02:37:38;;;;;;;8.53;5.43;;;;;;;16.88;91.58;102591.69;5039123;28;20750;-48
2022/08/10 02:40:04;;;;;;;5.95;5.00;;;;;;;16.86;92.08;102592.88;5040412;28;20024;-51
2022/08/10 02:43:00;;;;;;;7.97;5.55;;;;;;;16.89;90.59;102590.69;5057030;28;20048;-51
2022/08/10 02:45:36;;;;;;;10.38;5.53;;;;;;;16.80;92.76;102588.91;5016172;28;20285;-47
2022/08/10 02:48:08;;;;;;;9.55;5.80;;;;;;;16.76;93.09;102590.22;5044351;28;20412;-48
2022/08/10 02:50:39;;;;;;;14.18;5.18;;;;;;;16.76;93.94;102595.63;5039047;28;20931;-49
2022/08/10 02:53:17;;;;;;;9.60;5.10;;;;;;;16.74;93.12;102587.69;5038056;28;20091;-49
2022/08/10 02:56:04;;;;;;;9.93;5.43;;;;;;;16.75;92.24;102586.69;5037307;28;20117;-49
2022/08/10 02:58:54;;;;;;;13.40;5.30;;;;;;;16.72;92.72;102576.22;5037802;28;20032;-48
2022/08/10 03:01:22;;;;;;;8.15;5.72;;;;;;;16.67;94.63;102583.09;5036087;28;20527;-53
2022/08/10 03:03:58;;;;;;;8.27;5.30;;;;;;;16.60;94.85;102578.34;5037373;28;20049;-49
2022/08/10 03:06:29;;;;;;;8.93;5.38;;;;;;;16.58;95.00;102574.97;5035084;28;20052;-51
2022/08/10 03:08:56;;;;;;;9.57;5.88;;;;;;;16.57;95.78;102567.03;5037430;28;20020;-51
2022/08/10 03:11:26;;;;;;;13.05;6.35;;;;;;;16.52;99.24;102563.94;5053237;28;20463;-50
2022/08/10 03:13:53;;;;;;;16.30;6.53;;;;;;;16.53;100.00;102571.03;5049755;28;20025;-50
2022/08/10 03:16:21;;;;;;;12.15;6.43;;;;;;;16.46;100.00;102565.41;5054833;28;20021;-49
2022/08/10 03:18:47;;;;;;;12.73;6.25;;;;;;;16.41;100.00;102552.41;5039278;28;20028;-46
2022/08/10 03:21:15;;;;;;;12.65;6.10;;;;;;;16.42;100.00;102564.88;5050772;28;20029;-50
2022/08/10 03:23:42;;;;;;;8.85;6.35;;;;;;;16.35;100.00;102563.00;5053434;28;20040;-48
2022/08/10 03:26:08;;;;;;;15.30;6.22;;;;;;;16.33;100.00;102560.44;5056731;28;20047;-47
2022/08/10 03:28:35;;;;;;;11.13;6.00;;;;;;;16.30;100.00;102559.91;5052183;28;20699;-46
2022/08/10 03:31:01;;;;;;;9.15;5.55;;;;;;;16.25;100.00;102549.59;5035748;28;20041;-48
2022/08/10 03:33:30;;;;;;;12.85;5.78;;;;;;;16.22;100.00;102561.56;5035169;28;20043;-50
2022/08/10 03:35:56;;;;;;;12.80;5.80;;;;;;;16.21;100.00;102557.16;5035875;28;20028;-49
2022/08/10 03:38:22;;;;;;;10.65;5.70;;;;;;;16.20;100.00;102552.75;5036997;28;20032;-49
2022/08/10 03:40:49;;;;;;;11.77;5.25;;;;;;;16.17;100.00;102558.47;5039395;28;20051;-49
2022/08/10 03:43:16;;;;;;;6.65;5.18;;;;;;;16.19;100.00;102556.47;5041859;28;20032;-50
2022/08/10 03:45:43;;;;;;;8.07;4.90;;;;;;;16.21;100.00;102559.00;5053795;28;20036;-49
2022/08/10 03:48:09;;;;;;;7.53;4.80;;;;;;;16.21;100.00;102559.00;5047857;28;20120;-49
2022/08/10 03:50:35;;;;;;;8.82;4.72;;;;;;;16.19;100.00;102569.09;5037695;28;20069;-49
2022/08/10 03:53:01;;;;;;;7.70;4.97;;;;;;;16.17;100.00;102571.09;5035631;28;20086;-48
2022/08/10 03:55:27;;;;;;;7.32;4.82;;;;;;;16.10;100.00;102567.34;5047324;28;20380;-46
2022/08/10 03:57:52;;;;;;;6.68;4.75;;;;;;;16.12;100.00;102562.63;5056833;28;20032;-49
2022/08/10 04:00:18;;;;;;;6.13;4.97;;;;;;;16.09;100.00;102563.81;5055212;28;20430;-46
2022/08/10 04:02:48;;;;;;;9.90;5.68;;;;;;;16.09;100.00;102565.63;5052994;28;20074;-50
2022/08/10 04:05:16;;;;;;;6.28;5.15;;;;;;;16.04;100.00;102563.44;5035449;28;20454;-46
2022/08/10 04:07:45;;;;;;;7.57;5.75;;;;;;;16.03;100.00;102561.72;5036630;28;20020;-50
2022/08/10 04:10:10;;;;;;;11.20;5.90;;;;;;;15.99;100.00;102557.66;5051304;28;20040;-49
2022/08/10 04:12:35;;;;;;;10.35;6.07;;;;;;;15.97;100.00;102565.88;5038849;28;20025;-49
2022/08/10 04:15:01;;;;;;;8.00;5.65;;;;;;;15.96;100.00;102558.78;5047431;28;20556;-49
2022/08/10 04:17:26;;;;;;;11.60;5.93;;;;;;;15.95;100.00;102562.47;5051284;28;20467;-46
2022/08/10 04:19:54;;;;;;;8.75;5.40;;;;;;;15.95;100.00;102567.88;5034806;28;20515;-47
2022/08/10 04:22:22;;;;;;;7.03;5.55;;;;;;;15.92;100.00;102561.94;5050876;28;20452;-49
2022/08/10 04:24:52;;;;;;;14.85;5.70;;;;;;;15.92;100.00;102560.13;5051305;28;20021;-47
2022/08/10 04:27:17;;;;;;;9.15;5.85;;;;;;;15.93;100.00;102560.94;5051629;28;20132;-48
2022/08/10 04:29:43;;;;;;;12.18;5.85;;;;;;;15.95;100.00;102559.78;5055484;28;20443;-49
2022/08/10 04:32:09;;;;;;;7.10;5.90;;;;;;;15.92;100.00;102568.19;5053455;28;20560;-46
2022/08/10 04:34:37;;;;;;;12.13;5.72;;;;;;;15.90;100.00;102558.56;5054199;28;20564;-47
2022/08/10 04:37:05;;;;;;;8.98;5.28;;;;;;;15.87;100.00;102558.88;5045302;28;20025;-45
2022/08/10 04:39:31;;;;;;;8.23;5.00;;;;;;;15.90;100.00;102556.69;5035238;28;20098;-45
2022/08/10 04:41:56;;;;;;;7.10;5.05;;;;;;;15.92;100.00;102568.19;5036367;28;20025;-49
2022/08/10 04:44:23;;;;;;;11.15;5.38;;;;;;;15.92;100.00;102562.81;5054761;28;20437;-46
2022/08/10 04:46:48;;;;;;;10.73;4.97;;;;;;;15.95;100.00;102569.72;5049129;28;20322;-47
2022/08/10 04:49:14;;;;;;;5.93;4.70;;;;;;;15.95;100.00;102561.63;5033778;28;20152;-45
2022/08/10 04:51:39;;;;;;;12.02;4.85;;;;;;;15.97;100.00;102555.09;5045225;28;20028;-44
2022/08/10 04:54:04;;;;;;;8.70;4.93;;;;;;;16.00;100.00;102549.41;5041901;28;20025;-49
2022/08/10 04:56:30;;;;;;;5.22;4.60;;;;;;;15.98;100.00;102553.25;5052080;28;20452;-46
2022/08/10 04:58:55;;;;;;;7.45;4.88;;;;;;;16.04;100.00;102558.88;5054753;28;20395;-45
2022/08/10 05:01:20;;;;;;;9.38;4.43;;;;;;;16.06;100.00;102558.72;5054115;28;20021;-46
2022/08/10 05:03:46;;;;;;;8.65;5.20;;;;;;;16.08;100.00;102556.72;5055508;28;20060;-47
2022/08/10 05:06:11;;;;;;;7.97;4.53;;;;;;;16.00;100.00;102557.50;5035562;28;20449;-47
2022/08/10 05:08:36;;;;;;;11.45;5.00;;;;;;;16.09;100.00;102557.53;5035000;28;20021;-50
2022/08/10 05:11:02;;;;;;;6.95;4.78;;;;;;;16.10;100.00;102556.56;5039606;28;20028;-45
2022/08/10 05:13:28;;;;;;;15.98;5.15;;;;;;;16.14;100.00;102549.84;5052778;28;20076;-50
2022/08/10 05:15:53;;;;;;;8.90;5.05;;;;;;;16.14;100.00;102552.53;5042884;28;20096;-48
2022/08/10 05:18:18;;;;;;;6.93;5.13;;;;;;;16.20;100.00;102557.31;5035201;28;20487;-49
2022/08/10 05:20:44;;;;;;;6.88;5.05;;;;;;;16.22;100.00;102564.25;5035646;28;20109;-48
2022/08/10 05:23:09;;;;;;;9.63;5.18;;;;;;;16.25;100.00;102564.94;5044031;28;20411;-48
2022/08/10 05:25:35;;;;;;;7.30;5.05;;;;;;;16.21;100.00;102561.72;5032692;28;20024;-48
2022/08/10 05:28:00;;;;;;;8.15;5.32;;;;;;;16.26;100.00;102563.91;5053839;28;20067;-46
2022/08/10 05:30:26;;;;;;;9.20;5.20;;;;;;;16.29;100.00;102571.69;5052625;28;20238;-44
2022/08/10 05:32:51;;;;;;;6.90;5.47;;;;;;;16.32;100.00;102571.38;5050309;28;20564;-48
2022/08/10 05:35:17;;;;;;;7.72;5.50;;;;;;;16.31;100.00;102573.25;5034301;28;20064;-48
2022/08/10 05:37:43;;;;;;;11.38;5.68;;;;;;;16.36;100.00;102579.00;5034814;28;20037;-49
2022/08/10 05:40:09;;;;;;;11.95;5.75;;;;;;;16.40;100.00;102579.53;5034053;28;20083;-51
2022/08/10 05:42:36;;;;;;;7.97;5.43;;;;;;;16.45;100.00;102584.47;5034770;28;20119;-48
2022/08/10 05:45:02;;;;;;;7.30;5.53;;;;;;;16.44;100.00;102578.22;5051783;28;20020;-50
2022/08/10 05:47:28;;;;;;;12.25;5.80;;;;;;;16.49;100.00;102575.88;5041609;28;20597;-48
2022/08/10 05:49:54;;;;;;;10.65;5.63;;;;;;;16.54;100.00;102570.03;5034282;28;20052;-50
2022/08/10 05:52:20;;;;;;;13.63;6.63;;;;;;;16.55;100.00;102577.97;5052073;28;20028;-48
2022/08/10 05:54:46;;;;;;;11.98;5.82;;;;;;;16.59;100.00;102570.41;5051432;28;20032;-47
2022/08/10 05:57:14;;;;;;;8.35;6.07;;;;;;;16.65;100.00;102571.59;5040130;28;20451;-45
2022/08/10 05:59:46;;;;;;;11.27;6.43;;;;;;;16.70;100.00;102580.94;5049993;28;20025;-47
2022/08/10 06:02:16;;;;;;;12.73;6.13;;;;;;;16.71;100.00;102579.06;5045528;28;20037;-48
2022/08/10 06:04:44;;;;;;;11.63;6.18;;;;;;;16.78;100.00;102581.00;5037904;28;20436;-47
2022/08/10 06:07:13;;;;;;;9.02;6.50;;;;;;;16.90;100.00;102586.97;5057113;28;20047;-45
2022/08/10 06:09:42;;;;;;;10.98;6.05;;;;;;;16.90;100.00;102580.72;5058173;28;20429;-48
2022/08/10 06:12:08;;;;;;;11.25;6.25;;;;;;;16.96;100.00;102572.00;5058407;28;20020;-47
2022/08/10 06:17:19;;;;;;;9.15;6.20;;;;;;;17.18;100.00;102575.97;5057717;28;20350;-45
2022/08/10 06:19:46;;;;;;;8.73;5.97;;;;;;;17.26;100.00;102577.84;5047972;28;20493;-47
2022/08/10 06:22:12;;;;;;;15.20;6.32;;;;;;;17.31;100.00;102567.41;5056028;28;20036;-47
2022/08/10 06:24:40;;;;;;;10.63;6.45;;;;;;;17.42;100.00;102583.31;5038444;28;20410;-49
2022/08/10 06:27:08;;;;;;;10.32;6.30;;;;;;;17.53;100.00;102576.75;5037730;28;20029;-51
2022/08/10 06:29:36;;;;;;;13.90;6.25;;;;;;;17.64;100.00;102575.63;5042236;28;20050;-49
2022/08/10 06:32:03;;;;;;;10.88;6.28;;;;;;;17.75;100.00;102574.44;5051061;28;20518;-50
2022/08/10 06:34:43;;;;;;;11.73;6.22;;;;;;;17.83;100.00;102579.88;5055341;28;20028;-48
2022/08/10 06:37:11;;;;;;;12.60;6.20;;;;;;;17.87;98.45;102579.41;5038100;28;20033;-51
2022/08/10 06:39:36;;;;;;;16.80;6.35;;;;;;;17.94;98.32;102584.13;5037320;28;20463;-50
2022/08/10 06:42:25;;;;;;;20.58;6.53;;;;;;;17.98;97.71;102583.63;5058500;28;20218;-44
2022/08/10 06:45:12;;;;;;;12.50;6.13;;;;;;;18.05;98.28;102576.53;5057511;28;20027;-48
2022/08/10 06:48:04;;;;;;;10.10;6.38;;;;;;;18.13;96.00;102583.81;5055723;28;20028;-46
2022/08/10 06:50:37;;;;;;;17.40;6.40;;;;;;;18.22;95.93;102581.94;5055232;28;20576;-47
2022/08/10 06:53:09;;;;;;;9.90;6.55;;;;;;;18.31;96.06;102582.78;5054946;28;20046;-48
2022/08/10 06:55:39;;;;;;;11.50;6.65;;;;;;;18.41;94.63;102578.03;5043640;28;20479;-46
2022/08/10 06:58:07;;;;;;;12.00;6.20;;;;;;;18.55;93.70;102581.91;5037963;28;20025;-48
2022/08/10 07:00:39;;;;;;;12.32;5.82;;;;;;;18.64;92.84;102584.44;5036490;28;20028;-47
2022/08/10 07:03:08;;;;;;;7.45;5.60;;;;;;;18.79;91.99;102587.28;5039130;28;20052;-48
2022/08/10 07:05:38;;;;;;;12.68;6.10;;;;;;;18.92;90.42;102594.03;5042285;28;20031;-48
2022/08/10 07:08:04;;;;;;;8.13;5.97;;;;;;;19.01;88.94;102590.31;5057156;28;20036;-48
2022/08/10 07:10:30;;;;;;;11.70;5.60;;;;;;;19.19;88.24;102587.34;5049961;28;20406;-48
2022/08/10 07:12:58;;;;;;;11.85;5.82;;;;;;;19.35;86.66;102591.88;5052929;28;20458;-48
2022/08/10 07:15:25;;;;;;;7.18;5.38;;;;;;;19.46;84.98;102599.59;5051574;28;20024;-48
2022/08/10 07:17:51;;;;;;;7.25;5.60;;;;;;;19.59;84.67;102596.31;5052599;28;20029;-47
2022/08/10 07:20:18;;;;;;;12.50;5.72;;;;;;;19.72;83.15;102601.13;5034895;28;20028;-46
2022/08/10 07:22:47;;;;;;;13.30;5.72;;;;;;;19.91;84.67;102598.00;5036879;28;20777;-49
2022/08/10 07:25:17;;;;;;;9.75;5.50;;;;;;;20.10;83.58;102603.97;5037031;28;20025;-48
2022/08/10 07:27:44;;;;;;;10.25;5.45;;;;;;;20.30;82.44;102599.72;5037486;28;20021;-48
2022/08/10 07:30:10;;;;;;;11.77;5.47;;;;;;;20.46;79.57;102600.59;5040073;28;20084;-45
2022/08/10 07:32:38;;;;;;;13.45;5.40;;;;;;;20.61;79.65;102589.78;5039172;28;20029;-44
2022/08/10 07:35:04;;;;;;;12.00;5.35;;;;;;;20.84;78.78;102587.84;5036508;28;20103;-48
2022/08/10 07:37:34;;;;;;;10.10;5.30;;;;;;;20.95;75.12;102596.56;5056315;28;20434;-46
2022/08/10 07:40:02;;;;;;;9.40;5.27;;;;;;;21.12;78.27;102597.22;5045174;28;20079;-50
2022/08/10 07:42:29;;;;;;;10.40;5.15;;;;;;;21.31;75.80;102590.34;5047940;28;20021;-49
2022/08/10 07:44:55;;;;;;;8.02;4.75;;;;;;;21.48;74.94;102591.84;5050873;28;20031;-46
2022/08/10 07:47:38;;;;;;;7.88;4.65;;;;;;;21.59;74.63;102591.34;5055362;28;20108;-50
2022/08/10 07:50:07;;;;;;;11.20;5.40;;;;;;;21.73;71.76;102596.94;5053732;28;20122;-50
2022/08/10 07:52:36;;;;;;;9.52;4.85;;;;;;;21.80;71.13;102595.13;5057062;28;20028;-50
2022/08/10 07:55:02;;;;;;;7.18;4.75;;;;;;;22.00;73.25;102592.59;5055358;28;20026;-49
2022/08/10 07:57:32;;;;;;;5.43;4.30;;;;;;;22.08;71.87;102591.59;5052129;28;20025;-45
2022/08/10 08:00:02;;;;;;;7.35;4.40;;;;;;;22.10;67.95;102590.38;5038255;28;20121;-49
2022/08/10 08:02:33;;;;;;;7.18;4.40;;;;;;;22.13;69.58;102592.72;5054013;28;20031;-46
2022/08/10 08:05:03;;;;;;;8.82;4.40;;;;;;;22.19;67.94;102591.09;5055946;28;20024;-49
2022/08/10 08:07:30;;;;;;;6.32;4.10;;;;;;;22.34;69.42;102591.88;5052018;28;20515;-47
2022/08/10 08:09:56;;;;;;;7.53;4.22;;;;;;;22.44;67.78;102594.25;5036635;28;20024;-47
2022/08/10 08:12:23;;;;;;;6.03;4.05;;;;;;;22.75;68.08;102601.19;5052839;28;20039;-49
2022/08/10 08:14:49;;;;;;;7.93;3.88;;;;;;;22.84;66.17;102602.69;5055369;28;20020;-49
2022/08/10 08:17:16;;;;;;;5.88;4.00;;;;;;;22.89;64.95;102597.47;5034469;28;20329;-50
2022/08/10 08:19:45;;;;;;;10.05;3.70;;;;;;;22.91;64.16;102603.59;5035300;28;20294;-50
2022/08/10 08:22:11;;;;;;;9.90;3.95;;;;;;;23.07;63.17;102596.16;5047809;28;20021;-48
2022/08/10 08:24:39;;;;;;;8.88;3.85;;;;;;;23.20;65.09;102600.81;5053238;28;20345;-49
2022/08/10 08:27:04;;;;;;;7.00;3.30;;;;;;;23.37;63.91;102609.50;5036130;28;20052;-49
2022/08/10 08:29:36;;;;;;;9.45;3.40;;;;;;;23.49;62.14;102598.84;5036084;28;20452;-48
2022/08/10 08:32:02;;;;;;;8.23;3.28;;;;;;;23.62;60.54;102598.88;5035055;28;20060;-49
2022/08/10 08:34:31;;;;;;;8.45;3.30;;;;;;;23.77;61.01;102599.53;5035762;28;20025;-49
2022/08/10 08:36:59;;;;;;;10.27;3.40;;;;;;;23.94;59.85;102594.56;5048672;28;20642;-49
2022/08/10 08:39:25;;;;;;;6.43;3.53;;;;;;;24.10;59.80;102597.94;5038949;28;20082;-49
2022/08/10 08:42:02;;;;;;;10.93;3.10;;;;;;;24.25;59.27;102592.28;5053505;28;20430;-45
2022/08/10 08:44:38;;;;;;;7.82;2.80;;;;;;;24.44;59.45;102599.63;5053207;28;20617;-48
2022/08/10 08:47:21;;;;;;;7.28;3.05;;;;;;;24.63;57.40;102594.41;5054297;28;20029;-49
2022/08/10 08:49:49;;;;;;;6.28;2.90;;;;;;;24.72;57.27;102590.38;5053035;28;20013;-48
2022/08/10 08:52:31;;;;;;;10.27;2.90;;;;;;;24.92;56.62;102588.44;5035507;28;20119;-50
2022/08/10 08:55:17;;;;;;;13.07;3.30;;;;;;;25.09;56.45;102596.16;5035460;28;20017;-49
2022/08/10 08:57:54;;;;;;;14.55;3.50;;;;;;;25.09;54.36;102590.69;5035464;28;20049;-50
2022/08/10 09:00:49;;;;;;;8.75;2.92;;;;;;;25.16;54.64;102590.66;5033141;28;20033;-51
2022/08/10 09:03:30;;;;;;;9.80;2.90;;;;;;;25.23;52.92;102589.56;5035451;28;20045;-51
2022/08/10 09:06:17;;;;;;;9.40;2.97;;;;;;;25.24;51.32;102579.50;5034822;28;20033;-50
2022/08/10 09:09:08;;;;;;;7.70;2.92;;;;;;;25.36;53.30;102585.97;5035921;28;20024;-50
2022/08/10 09:11:56;;;;;;;7.70;2.60;;;;;;;25.44;53.23;102588.47;5047030;28;20039;-50
2022/08/10 09:14:37;;;;;;;11.63;3.08;;;;;;;25.60;51.06;102578.91;5034393;28;20098;-48
2022/08/10 09:17:14;;;;;;;7.65;2.80;;;;;;;25.80;52.90;102580.69;5033992;28;20166;-51
2022/08/10 09:19:54;;;;;;;4.00;2.55;;;;;;;25.87;52.06;102576.00;5032515;28;20116;-50
2022/08/10 09:22:41;;;;;;;8.35;3.20;;;;;;;26.05;51.82;102572.50;5035030;28;20108;-47
2022/08/10 09:25:17;;;;;;;9.90;3.00;;;;;;;26.04;49.87;102573.56;5035005;28;20099;-49
2022/08/10 09:27:46;;;;;;;3.88;2.47;;;;;;;26.14;48.83;102571.16;5054538;28;20042;-45
2022/08/10 09:30:15;;;;;;;7.03;3.00;;;;;;;26.09;49.28;102561.94;5052029;28;20028;-52
2022/08/10 09:32:47;;;;;;;7.82;2.70;;;;;;;26.12;50.56;102561.50;5054479;28;20111;-49
2022/08/10 09:36:14;;;;;;;7.68;2.63;;;;;;;26.28;49.99;102554.63;5053537;28;20624;-50
2022/08/10 09:39:07;;;;;;;8.77;2.60;;;;;;;26.54;49.07;102553.50;5010284;28;20044;-49
2022/08/10 09:41:50;;;;;;;5.18;2.63;;;;;;;26.67;47.17;102555.31;5048628;28;20402;-49
2022/08/10 09:44:30;;;;;;;9.48;2.72;;;;;;;26.71;47.13;102551.03;5054524;28;20025;-50
2022/08/10 09:47:10;;;;;;;8.40;3.00;;;;;;;26.86;47.48;102565.19;5050973;28;20051;-49
2022/08/10 09:49:43;;;;;;;6.97;2.80;;;;;;;26.97;48.17;102553.47;5042477;28;20021;-48
2022/08/10 09:52:16;;;;;;;5.45;2.70;;;;;;;27.16;46.35;102557.03;5049498;28;20021;-47
2022/08/10 09:55:05;;;;;;;7.50;3.10;;;;;;;27.24;44.98;102546.78;5053274;28;20449;-45
2022/08/10 09:57:40;;;;;;;12.32;2.78;;;;;;;27.35;42.95;102551.53;5034863;28;20502;-48
2022/08/10 10:00:13;;;;;;;5.50;2.90;;;;;;;27.46;44.40;102544.41;5033673;28;20029;-46
2022/08/10 10:02:42;;;;;;;4.57;2.63;;;;;;;27.45;43.48;102540.00;5050070;28;20509;-49
2022/08/10 10:05:24;;;;;;;5.57;2.70;;;;;;;27.61;45.48;102543.97;5053283;28;20098;-50
2022/08/10 10:08:04;;;;;;;5.68;2.33;;;;;;;27.84;47.29;102535.78;5053873;28;20477;-50
2022/08/10 10:10:37;;;;;;;4.90;2.72;;;;;;;27.99;43.35;102540.88;5045111;28;20177;-49
2022/08/10 10:13:11;;;;;;;5.97;2.80;;;;;;;28.09;42.31;102535.63;5040096;28;20300;-50
2022/08/10 10:15:48;;;;;;;7.32;2.58;;;;;;;28.28;42.02;102530.00;5031922;28;20029;-48
2022/08/10 10:18:26;;;;;;;8.75;2.53;;;;;;;28.41;41.83;102528.91;5039185;28;20085;-50
2022/08/10 10:21:09;;;;;;;3.97;2.65;;;;;;;28.44;41.14;102523.75;5038632;28;20031;-49
2022/08/10 10:24:03;;;;;;;7.90;2.70;;;;;;;28.56;40.54;102518.28;5052023;28;20075;-50
2022/08/10 10:26:41;;;;;;;5.72;2.75;;;;;;;28.60;39.49;102511.25;5048911;28;20021;-50
2022/08/10 10:29:29;;;;;;;11.52;2.70;;;;;;;28.57;40.00;102508.16;5033476;28;20048;-48
2022/08/10 10:32:20;;;;;;;7.85;2.53;;;;;;;28.64;39.31;102514.34;5033003;28;20044;-46
2022/08/10 10:35:15;;;;;;;5.78;2.97;;;;;;;28.73;39.59;102512.03;5033227;28;20120;-48
2022/08/10 10:37:44;;;;;;;6.68;2.83;;;;;;;28.89;37.93;102508.53;5036478;28;20029;-50
2022/08/10 10:40:11;;;;;;;5.32;2.40;;;;;;;28.96;39.65;102506.47;5041494;28;20033;-49
2022/08/10 10:42:42;;;;;;;6.72;2.40;;;;;;;29.08;39.54;102502.84;5056100;28;20498;-46
2022/08/10 10:45:17;;;;;;;6.38;2.42;;;;;;;29.21;38.62;102510.84;5036286;28;20407;-50
2022/08/10 10:48:04;;;;;;;7.18;2.60;;;;;;;29.24;38.99;102495.72;5038520;28;20025;-49
2022/08/10 10:50:57;;;;;;;3.67;2.60;;;;;;;29.39;37.96;102491.31;5049337;28;20032;-46
2022/08/10 10:53:48;;;;;;;5.13;2.85;;;;;;;29.46;38.21;102484.84;5038134;28;20663;-49
2022/08/10 10:56:26;;;;;;;;;;;;;;;29.64;38.32;102490.13;5038195;28;20029;-50
2022/08/10 10:59:22;;;;;;;7.10;2.90;;;;;;;29.70;38.41;102485.50;5036476;28;20422;-50
2022/08/10 11:02:17;;;;;;;8.48;3.03;;;;;;;29.80;39.72;102480.19;5036805;28;20037;-49
2022/08/10 11:05:02;;;;;;;15.68;2.60;;;;;;;29.98;36.88;102473.59;5048506;28;20048;-50
2022/08/10 11:07:37;;;;;;;7.93;2.72;;;;;;;30.02;36.09;102473.91;5048586;28;20712;-50
2022/08/10 11:10:10;;;;;;;4.20;2.67;;;;;;;30.12;36.59;102477.66;5037790;28;20606;-51
2022/08/10 11:12:48;;;;;;;5.50;2.60;;;;;;;30.10;35.42;102474.31;5049725;28;20185;-49
2022/08/10 11:15:22;;;;;;;13.30;2.97;;;;;;;30.10;35.48;102456.97;5045217;28;20033;-47
2022/08/10 11:17:49;;;;;;;9.60;2.90;;;;;;;30.21;34.86;102463.44;5058304;28;20025;-49
2022/08/10 11:20:23;;;;;;;9.52;2.95;;;;;;;30.18;34.27;102459.28;5045305;28;20033;-50
2022/08/10 11:23:01;;;;;;;9.15;2.75;;;;;;;30.28;34.94;102464.09;5050547;28;20051;-52
2022/08/10 11:25:30;;;;;;;3.63;2.80;;;;;;;30.25;35.24;102461.84;5048014;28;20024;-49
2022/08/10 11:28:20;;;;;;;8.33;2.87;;;;;;;30.40;36.05;102466.75;5044744;28;20051;-49
2022/08/10 11:31:18;;;;;;;7.82;2.83;;;;;;;30.64;35.84;102462.66;5035938;28;20573;-51
2022/08/10 11:33:55;;;;;;;5.20;2.80;;;;;;;30.71;33.87;102456.94;5035888;28;20045;-50
2022/08/10 11:36:48;;;;;;;7.13;2.70;;;;;;;30.69;33.97;102459.13;5035361;28;20119;-49
2022/08/10 11:39:23;;;;;;;8.40;2.72;;;;;;;30.62;35.14;102455.72;5052815;28;20542;-51
2022/08/10 11:41:57;;;;;;;10.48;3.53;;;;;;;30.50;34.30;102451.19;5048130;28;20033;-50
2022/08/10 11:44:41;;;;;;;4.40;2.70;;;;;;;30.52;36.30;102456.44;5036250;28;20021;-48
2022/08/10 11:47:11;;;;;;;6.75;2.83;;;;;;;30.69;35.55;102448.09;5035465;28;20566;-49
2022/08/10 11:49:36;;;;;;;4.93;2.58;;;;;;;30.72;34.02;102452.25;5034586;28;20021;-51